Time;durP1;ratioP1;P1;durP2;ratioP2;P2;SDS_P1;SDS_P2;PMS_P1;PMS_P2;Temp;Humidity;BMP_temperature;BMP_pressure;BME280_temperature;BME280_humidity;BME280_pressure;Samples;Min_cycle;Max_cycle;Signal;HPM_P1;HPM_P2
2022/07/15 00:02:03;;;;;;;;;3.50;3.50;;;;;;;;5095086;27;45631;-64
2022/07/15 00:04:28;;;;;;;;;4.00;4.00;;;;;;;;5094730;27;45475;-63
2022/07/15 00:06:53;;;;;;;;;4.00;4.00;;;;;;;;5095283;27;45398;-64
2022/07/15 00:09:18;;;;;;;;;5.25;4.75;;;;;;;;5095031;27;45493;-63
2022/07/15 00:11:43;;;;;;;;;4.00;4.00;;;;;;;;5076157;27;48959;-64
2022/07/15 00:14:09;;;;;;;;;7.00;4.50;;;;;;;;5076267;27;46052;-64
2022/07/15 00:16:34;;;;;;;;;4.00;4.00;;;;;;;;5094992;27;45334;-64
2022/07/15 00:18:59;;;;;;;;;4.00;4.00;;;;;;;;5095056;27;45367;-64
2022/07/15 00:21:24;;;;;;;;;4.00;4.00;;;;;;;;5094734;27;45714;-63
2022/07/15 00:23:49;;;;;;;;;4.00;4.00;;;;;;;;5076113;27;46050;-64
2022/07/15 00:26:14;;;;;;;;;3.25;3.25;;;;;;;;5094205;27;45356;-65
2022/07/15 00:28:40;;;;;;;;;4.75;3.50;;;;;;;;5094521;27;45408;-64
2022/07/15 00:31:05;;;;;;;;;5.00;5.00;;;;;;;;5094425;27;45812;-63
2022/07/15 00:33:30;;;;;;;;;4.75;4.75;;;;;;;;5092317;27;45330;-64
2022/07/15 00:35:55;;;;;;;;;4.25;2.50;;;;;;;;5092354;27;45649;-64
2022/07/15 00:38:21;;;;;;;;;5.00;3.50;;;;;;;;5091902;27;45423;-64
2022/07/15 00:40:47;;;;;;;;;3.00;2.00;;;;;;;;5092048;27;45724;-64
2022/07/15 00:43:13;;;;;;;;;3.00;3.00;;;;;;;;5092634;27;45464;-64
2022/07/15 00:45:38;;;;;;;;;4.00;4.00;;;;;;;;5093192;27;45444;-64
2022/07/15 00:48:04;;;;;;;;;3.00;3.00;;;;;;;;5093277;27;45386;-64
2022/07/15 00:50:30;;;;;;;;;3.50;3.50;;;;;;;;5093071;27;46290;-63
2022/07/15 00:52:56;;;;;;;;;2.00;2.00;;;;;;;;5093044;27;45544;-63
2022/07/15 00:55:22;;;;;;;;;3.00;3.00;;;;;;;;5093140;27;45412;-63
2022/07/15 00:57:49;;;;;;;;;4.00;2.25;;;;;;;;5093044;27;45395;-64
2022/07/15 01:00:14;;;;;;;;;3.25;3.25;;;;;;;;5074524;27;48840;-63
2022/07/15 01:02:40;;;;;;;;;3.50;3.25;;;;;;;;5093084;27;45476;-63
2022/07/15 01:05:06;;;;;;;;;3.25;3.25;;;;;;;;5074631;27;45473;-64
2022/07/15 01:07:32;;;;;;;;;3.00;3.00;;;;;;;;5092637;27;45440;-64
2022/07/15 01:09:57;;;;;;;;;3.25;3.00;;;;;;;;5074478;27;45741;-64
2022/07/15 01:12:23;;;;;;;;;3.00;3.00;;;;;;;;5092512;27;45407;-64
2022/07/15 01:14:48;;;;;;;;;2.00;2.00;;;;;;;;5092923;27;46030;-64
2022/07/15 01:17:15;;;;;;;;;3.75;3.75;;;;;;;;5092671;27;45382;-64
2022/07/15 01:19:40;;;;;;;;;4.00;3.00;;;;;;;;5092493;27;45734;-64
2022/07/15 01:22:05;;;;;;;;;3.75;3.75;;;;;;;;5092674;27;45539;-64
2022/07/15 01:24:30;;;;;;;;;3.75;3.50;;;;;;;;5092644;27;45373;-64
2022/07/15 01:26:56;;;;;;;;;2.00;2.00;;;;;;;;5092867;27;45685;-64
2022/07/15 01:29:21;;;;;;;;;2.25;2.25;;;;;;;;5092822;27;45546;-63
2022/07/15 01:31:46;;;;;;;;;4.75;3.25;;;;;;;;5092795;27;45634;-64
2022/07/15 01:34:11;;;;;;;;;3.00;2.75;;;;;;;;5092949;27;45496;-64
2022/07/15 01:36:37;;;;;;;;;2.00;2.00;;;;;;;;5093178;27;45309;-64
2022/07/15 01:39:02;;;;;;;;;5.75;2.50;;;;;;;;5096302;27;45661;-64
2022/07/15 01:41:27;;;;;;;;;2.00;2.00;;;;;;;;5096640;27;45476;-64
2022/07/15 01:43:53;;;;;;;;;3.75;3.75;;;;;;;;5096493;27;45393;-64
2022/07/15 01:46:18;;;;;;;;;3.25;3.25;;;;;;;;5096426;27;45935;-64
2022/07/15 01:51:27;;;;;;;;;1.75;1.75;;;;;;;;5096412;27;45467;-64
2022/07/15 01:53:52;;;;;;;;;2.00;2.00;;;;;;;;5096256;27;45307;-64
2022/07/15 01:56:18;;;;;;;;;3.50;3.50;;;;;;;;5077776;27;45591;-63
2022/07/15 01:58:43;;;;;;;;;3.00;2.00;;;;;;;;5096220;27;45634;-63
2022/07/15 02:01:08;;;;;;;;;6.25;4.25;;;;;;;;5096238;27;45424;-63
2022/07/15 02:03:33;;;;;;;;;2.25;2.25;;;;;;;;5096193;27;45354;-63
2022/07/15 02:05:59;;;;;;;;;1.75;1.50;;;;;;;;5096219;27;45344;-62
2022/07/15 02:08:24;;;;;;;;;2.75;2.75;;;;;;;;5095626;27;45633;-63
2022/07/15 02:10:49;;;;;;;;;2.00;2.00;;;;;;;;5077356;27;45403;-63
2022/07/15 02:13:14;;;;;;;;;2.50;1.50;;;;;;;;5096096;27;45392;-63
2022/07/15 02:15:40;;;;;;;;;1.25;1.25;;;;;;;;5096012;27;45695;-64
2022/07/15 02:18:06;;;;;;;;;4.00;3.25;;;;;;;;5095677;27;46435;-63
2022/07/15 02:20:31;;;;;;;;;3.50;2.00;;;;;;;;5095775;27;45498;-63
2022/07/15 02:22:57;;;;;;;;;4.25;4.00;;;;;;;;5095938;27;45366;-65
2022/07/15 02:25:23;;;;;;;;;1.50;1.50;;;;;;;;5095729;27;45557;-64
2022/07/15 02:27:48;;;;;;;;;2.50;2.50;;;;;;;;5095501;27;46472;-63
2022/07/15 02:30:14;;;;;;;;;4.50;2.50;;;;;;;;5077017;27;45387;-64
2022/07/15 02:32:40;;;;;;;;;2.75;2.75;;;;;;;;5095768;27;45373;-63
2022/07/15 02:35:05;;;;;;;;;4.00;2.25;;;;;;;;5095143;27;45464;-63
2022/07/15 02:37:31;;;;;;;;;2.50;2.50;;;;;;;;5095004;27;46827;-64
2022/07/15 02:39:56;;;;;;;;;2.75;2.00;;;;;;;;5095424;27;45429;-64
2022/07/15 02:42:21;;;;;;;;;4.50;2.50;;;;;;;;5095448;27;45152;-63
2022/07/15 02:44:47;;;;;;;;;1.00;1.00;;;;;;;;5095497;27;45381;-64
2022/07/15 02:47:13;;;;;;;;;2.25;2.25;;;;;;;;5095283;27;45737;-63
2022/07/15 02:49:38;;;;;;;;;8.00;3.00;;;;;;;;5094838;27;45626;-63
2022/07/15 02:52:03;;;;;;;;;2.00;2.00;;;;;;;;5095566;27;45688;-63
2022/07/15 02:54:28;;;;;;;;;4.00;4.00;;;;;;;;5095142;27;45439;-62
2022/07/15 02:56:54;;;;;;;;;4.25;4.25;;;;;;;;5095041;27;46562;-62
2022/07/15 02:59:19;;;;;;;;;6.50;5.75;;;;;;;;5095195;27;45369;-62
2022/07/15 03:01:44;;;;;;;;;5.00;5.00;;;;;;;;5095236;27;45454;-62
2022/07/15 03:04:09;;;;;;;;;6.75;5.75;;;;;;;;5095158;27;45506;-62
2022/07/15 03:06:35;;;;;;;;;3.50;2.50;;;;;;;;5094946;27;45761;-63
2022/07/15 03:09:00;;;;;;;;;4.00;3.00;;;;;;;;5095014;27;45376;-62
2022/07/15 03:11:26;;;;;;;;;5.25;3.75;;;;;;;;5076878;27;45725;-62
2022/07/15 03:13:51;;;;;;;;;4.75;4.00;;;;;;;;5095296;27;45393;-63
2022/07/15 03:16:16;;;;;;;;;5.00;4.75;;;;;;;;5095163;27;46165;-63
2022/07/15 03:18:41;;;;;;;;;3.50;3.50;;;;;;;;5095176;27;45432;-63
2022/07/15 03:21:07;;;;;;;;;3.50;3.00;;;;;;;;5095232;27;45480;-62
2022/07/15 03:23:32;;;;;;;;;3.25;3.25;;;;;;;;5095515;27;45873;-64
2022/07/15 03:25:57;;;;;;;;;6.50;5.00;;;;;;;;5095164;27;46225;-62
2022/07/15 03:28:22;;;;;;;;;3.50;3.50;;;;;;;;5094646;27;45433;-63
2022/07/15 03:30:48;;;;;;;;;3.75;3.50;;;;;;;;5076283;27;45513;-63
2022/07/15 03:33:13;;;;;;;;;7.75;5.50;;;;;;;;5094737;27;45453;-63
2022/07/15 03:35:41;;;;;;;;;4.00;4.00;;;;;;;;5094314;27;46908;-63
2022/07/15 03:38:06;;;;;;;;;3.75;3.75;;;;;;;;5094755;27;45435;-63
2022/07/15 03:40:31;;;;;;;;;5.75;4.75;;;;;;;;5094980;27;45875;-63
2022/07/15 03:42:56;;;;;;;;;4.50;4.00;;;;;;;;5094826;27;45427;-64
2022/07/15 03:45:22;;;;;;;;;5.25;4.00;;;;;;;;5076482;27;46063;-63
2022/07/15 03:47:47;;;;;;;;;4.00;4.00;;;;;;;;5094714;27;45707;-63
2022/07/15 03:50:12;;;;;;;;;4.00;4.00;;;;;;;;5094882;27;45354;-64
2022/07/15 03:52:37;;;;;;;;;4.00;4.00;;;;;;;;5094602;27;45384;-64
2022/07/15 03:55:03;;;;;;;;;3.25;3.25;;;;;;;;5094467;27;45380;-64
2022/07/15 03:57:28;;;;;;;;;5.75;5.00;;;;;;;;5094140;27;45412;-64
2022/07/15 03:59:53;;;;;;;;;6.00;5.25;;;;;;;;5093607;27;45525;-63
2022/07/15 04:02:19;;;;;;;;;5.00;3.00;;;;;;;;5075657;27;45384;-64
2022/07/15 04:04:44;;;;;;;;;3.00;3.00;;;;;;;;5094306;27;46423;-64
2022/07/15 04:07:09;;;;;;;;;4.25;4.25;;;;;;;;5094256;27;45343;-63
2022/07/15 04:09:34;;;;;;;;;2.75;2.75;;;;;;;;5094272;27;45528;-64
2022/07/15 04:11:59;;;;;;;;;4.00;3.25;;;;;;;;5094335;27;45586;-63
2022/07/15 04:14:25;;;;;;;;;5.50;3.75;;;;;;;;5093970;27;45385;-63
2022/07/15 04:16:50;;;;;;;;;4.50;4.50;;;;;;;;5093964;27;45509;-63
2022/07/15 04:19:15;;;;;;;;;5.25;4.00;;;;;;;;5075594;27;45439;-63
2022/07/15 04:21:40;;;;;;;;;5.75;2.25;;;;;;;;5075445;27;45988;-63
2022/07/15 04:24:06;;;;;;;;;3.00;3.00;;;;;;;;5093985;27;46376;-64
2022/07/15 04:26:31;;;;;;;;;5.00;5.00;;;;;;;;5094113;27;45357;-63
2022/07/15 04:28:56;;;;;;;;;5.75;5.25;;;;;;;;5094002;27;45520;-63
2022/07/15 04:31:22;;;;;;;;;3.50;3.25;;;;;;;;5093924;27;45464;-64
2022/07/15 04:33:47;;;;;;;;;2.00;2.00;;;;;;;;5093614;27;45539;-63
2022/07/15 04:36:12;;;;;;;;;4.00;4.00;;;;;;;;5074864;27;45555;-63
2022/07/15 04:38:37;;;;;;;;;3.75;2.50;;;;;;;;5093661;27;45560;-63
2022/07/15 04:41:02;;;;;;;;;2.50;2.50;;;;;;;;5093896;27;45449;-62
2022/07/15 04:43:28;;;;;;;;;2.00;2.00;;;;;;;;5093308;27;46216;-62
2022/07/15 04:45:53;;;;;;;;;4.25;4.25;;;;;;;;5075218;27;45388;-63
2022/07/15 04:51:02;;;;;;;;;4.75;4.75;;;;;;;;5093588;27;45436;-62
2022/07/15 04:53:28;;;;;;;;;3.50;3.25;;;;;;;;5093086;27;46708;-63
2022/07/15 04:55:53;;;;;;;;;4.00;4.00;;;;;;;;5093185;27;45495;-63
2022/07/15 04:58:18;;;;;;;;;3.50;3.50;;;;;;;;5093380;27;45354;-62
2022/07/15 05:00:44;;;;;;;;;3.75;3.75;;;;;;;;5093665;27;45760;-63
2022/07/15 05:03:10;;;;;;;;;3.25;3.25;;;;;;;;5093124;27;46526;-63
2022/07/15 05:05:35;;;;;;;;;4.00;4.00;;;;;;;;5093209;27;45448;-63
2022/07/15 05:08:00;;;;;;;;;8.50;4.00;;;;;;;;5093405;27;45459;-63
2022/07/15 05:10:25;;;;;;;;;3.00;3.00;;;;;;;;5093277;27;45383;-63
2022/07/15 05:12:51;;;;;;;;;8.50;4.00;;;;;;;;5093330;27;46114;-63
2022/07/15 05:15:16;;;;;;;;;4.25;4.00;;;;;;;;5074983;27;45523;-63
2022/07/15 05:17:41;;;;;;;;;7.00;5.00;;;;;;;;5093319;27;45457;-63
2022/07/15 05:20:07;;;;;;;;;5.00;5.00;;;;;;;;5093489;27;45384;-62
2022/07/15 05:22:32;;;;;;;;;4.25;4.25;;;;;;;;5074951;27;48476;-62
2022/07/15 05:24:57;;;;;;;;;4.00;3.50;;;;;;;;5074867;27;45451;-63
2022/07/15 05:27:22;;;;;;;;;6.00;4.25;;;;;;;;5093376;27;45430;-63
2022/07/15 05:29:47;;;;;;;;;4.50;4.50;;;;;;;;5074930;27;45375;-64
2022/07/15 05:32:13;;;;;;;;;3.75;3.75;;;;;;;;5092796;27;46399;-63
2022/07/15 05:34:38;;;;;;;;;5.25;4.00;;;;;;;;5092824;27;45434;-63
2022/07/15 05:37:03;;;;;;;;;4.25;4.25;;;;;;;;5074437;27;45409;-62
2022/07/15 05:39:28;;;;;;;;;5.25;4.50;;;;;;;;5093112;27;45474;-64
2022/07/15 05:41:54;;;;;;;;;4.00;4.00;;;;;;;;5093004;27;45438;-62
2022/07/15 05:44:19;;;;;;;;;4.75;4.75;;;;;;;;5074178;27;45879;-64
2022/07/15 05:46:44;;;;;;;;;4.00;3.25;;;;;;;;5093185;27;45522;-62
2022/07/15 05:49:10;;;;;;;;;3.50;3.50;;;;;;;;5093228;27;45639;-62
2022/07/15 05:51:36;;;;;;;;;4.00;4.00;;;;;;;;5092763;27;46140;-62
2022/07/15 05:54:01;;;;;;;;;5.75;5.25;;;;;;;;5092591;27;45487;-62
2022/07/15 05:56:26;;;;;;;;;5.00;4.00;;;;;;;;5092838;27;45459;-63
2022/07/15 05:58:51;;;;;;;;;7.00;5.50;;;;;;;;5092761;27;45369;-62
2022/07/15 06:01:17;;;;;;;;;5.00;5.00;;;;;;;;5057258;27;47893;-63
2022/07/15 06:03:42;;;;;;;;;8.25;6.25;;;;;;;;5092543;27;45450;-64
2022/07/15 06:06:08;;;;;;;;;4.50;4.50;;;;;;;;5074379;27;45573;-63
2022/07/15 06:08:34;;;;;;;;;5.25;4.25;;;;;;;;5092658;27;45372;-63
2022/07/15 06:10:59;;;;;;;;;3.25;1.25;;;;;;;;5092435;27;45599;-64
2022/07/15 06:13:24;;;;;;;;;6.00;6.00;;;;;;;;5056838;27;45563;-63
2022/07/15 06:15:50;;;;;;;;;6.00;6.00;;;;;;;;5073863;27;45542;-64
2022/07/15 06:18:16;;;;;;;;;4.25;4.25;;;;;;;;5092286;27;45481;-63
2022/07/15 06:20:41;;;;;;;;;5.00;5.00;;;;;;;;5092090;27;46322;-64
2022/07/15 06:23:06;;;;;;;;;4.00;4.00;;;;;;;;5093229;27;45357;-63
2022/07/15 06:25:31;;;;;;;;;3.75;3.75;;;;;;;;5077885;27;45933;-63
2022/07/15 06:27:57;;;;;;;;;6.00;6.00;;;;;;;;5077603;27;45723;-63
2022/07/15 06:30:22;;;;;;;;;7.50;5.50;;;;;;;;5095496;27;45710;-64
2022/07/15 06:32:47;;;;;;;;;3.00;3.00;;;;;;;;5095688;27;45417;-63
2022/07/15 06:35:12;;;;;;;;;5.50;4.25;;;;;;;;5095610;27;46193;-63
2022/07/15 06:37:37;;;;;;;;;5.50;4.00;;;;;;;;5073643;28;45648;-63
2022/07/15 06:40:03;;;;;;;;;4.25;4.00;;;;;;;;5075103;28;46401;-62
2022/07/15 06:42:29;;;;;;;;;5.25;4.50;;;;;;;;5074925;28;45513;-64
2022/07/15 06:44:54;;;;;;;;;5.50;5.50;;;;;;;;5075073;28;45315;-63
2022/07/15 06:47:20;;;;;;;;;3.75;3.75;;;;;;;;5075306;28;45747;-64
2022/07/15 06:49:46;;;;;;;;;4.00;4.00;;;;;;;;5056377;28;47444;-63
2022/07/15 06:52:11;;;;;;;;;5.00;5.00;;;;;;;;5075237;28;45342;-64
2022/07/15 06:54:37;;;;;;;;;4.00;4.00;;;;;;;;5075081;28;45412;-62
2022/07/15 06:57:02;;;;;;;;;5.75;5.75;;;;;;;;5075002;28;45476;-63
2022/07/15 06:59:27;;;;;;;;;6.75;4.25;;;;;;;;5074702;28;46003;-63
2022/07/15 07:01:53;;;;;;;;;5.00;5.00;;;;;;;;5073272;28;45502;-63
2022/07/15 07:04:18;;;;;;;;;8.50;6.00;;;;;;;;5074880;28;45418;-64
2022/07/15 07:06:44;;;;;;;;;6.75;5.00;;;;;;;;5074685;28;45437;-64
2022/07/15 07:09:10;;;;;;;;;4.50;3.75;;;;;;;;5074622;28;45957;-63
2022/07/15 07:11:35;;;;;;;;;6.25;5.25;;;;;;;;5074634;28;45418;-63
2022/07/15 07:14:00;;;;;;;;;3.25;3.25;;;;;;;;5074803;28;45573;-62
2022/07/15 07:16:26;;;;;;;;;5.25;5.25;;;;;;;;5074628;28;45361;-63
2022/07/15 07:18:51;;;;;;;;;6.50;4.25;;;;;;;;5074407;28;46292;-62
2022/07/15 07:21:17;;;;;;;;;4.50;4.50;;;;;;;;5074355;28;45523;-63
2022/07/15 07:23:42;;;;;;;;;5.25;4.75;;;;;;;;5074445;28;45444;-64
2022/07/15 07:26:08;;;;;;;;;4.00;4.00;;;;;;;;5074461;28;45390;-63
2022/07/15 07:28:34;;;;;;;;;3.50;3.00;;;;;;;;5074209;28;45878;-62
2022/07/15 07:30:59;;;;;;;;;5.50;3.00;;;;;;;;5074483;28;45587;-62
2022/07/15 07:33:25;;;;;;;;;4.00;4.00;;;;;;;;5074308;28;45405;-62
2022/07/15 07:35:51;;;;;;;;;4.25;3.25;;;;;;;;5073058;28;45355;-64
2022/07/15 07:38:16;;;;;;;;;3.50;2.50;;;;;;;;5092816;27;46268;-64
2022/07/15 07:40:42;;;;;;;;;2.00;2.00;;;;;;;;5094432;27;45464;-64
2022/07/15 07:43:07;;;;;;;;;2.25;2.25;;;;;;;;5094489;27;45426;-64
2022/07/15 07:45:32;;;;;;;;;4.75;3.75;;;;;;;;5076134;27;45470;-63
2022/07/15 07:47:57;;;;;;;;;5.00;4.50;;;;;;;;5094424;27;46440;-63
2022/07/15 07:50:22;;;;;;;;;3.00;3.00;;;;;;;;5094227;27;45441;-63
2022/07/15 07:52:48;;;;;;;;;3.00;3.00;;;;;;;;5094525;27;45387;-63
2022/07/15 07:55:14;;;;;;;;;4.00;4.00;;;;;;;;5094105;27;45665;-63
2022/07/15 07:57:46;;;;;;;;;1.25;1.25;;;;;;;;5094110;27;46755;-64
2022/07/15 08:00:12;;;;;;;;;3.00;3.00;;;;;;;;5094257;27;45398;-63
2022/07/15 08:02:37;;;;;;;;;3.00;3.00;;;;;;;;5094319;27;45508;-64
2022/07/15 08:05:03;;;;;;;;;4.00;4.00;;;;;;;;5094227;27;45403;-65
2022/07/15 08:07:29;;;;;;;;;2.50;2.50;;;;;;;;5075765;27;47443;-63
2022/07/15 08:09:54;;;;;;;;;2.50;2.50;;;;;;;;5094121;27;45412;-63
2022/07/15 08:12:19;;;;;;;;;3.00;3.00;;;;;;;;5094044;27;45436;-63
2022/07/15 08:14:44;;;;;;;;;4.00;4.00;;;;;;;;5075794;27;45861;-64
2022/07/15 08:17:10;;;;;;;;;2.00;2.00;;;;;;;;5094008;27;45968;-64
2022/07/15 08:19:35;;;;;;;;;3.25;3.25;;;;;;;;5094040;27;45943;-63
2022/07/15 08:22:01;;;;;;;;;2.00;2.00;;;;;;;;5094068;27;45528;-63
2022/07/15 08:24:26;;;;;;;;;4.50;3.25;;;;;;;;5093693;27;45463;-64
2022/07/15 08:26:52;;;;;;;;;4.75;4.75;;;;;;;;5093426;27;45903;-64
2022/07/15 08:29:17;;;;;;;;;4.50;3.00;;;;;;;;5093516;27;45423;-64
2022/07/15 08:31:43;;;;;;;;;4.00;3.25;;;;;;;;5093723;27;45531;-64
2022/07/15 08:34:08;;;;;;;;;2.75;2.75;;;;;;;;5093590;27;45478;-63
2022/07/15 08:36:33;;;;;;;;;3.00;3.00;;;;;;;;5093029;27;46423;-64
2022/07/15 08:38:58;;;;;;;;;4.00;2.50;;;;;;;;5093247;27;45503;-63
2022/07/15 08:41:23;;;;;;;;;3.75;2.75;;;;;;;;5093452;27;45857;-64
2022/07/15 08:43:49;;;;;;;;;3.75;2.00;;;;;;;;5074692;27;45494;-63
2022/07/15 08:46:14;;;;;;;;;2.00;1.00;;;;;;;;5092729;27;45614;-63
2022/07/15 08:48:40;;;;;;;;;2.25;2.25;;;;;;;;5093261;27;45436;-63
2022/07/15 08:51:07;;;;;;;;;1.50;1.50;;;;;;;;5093134;27;45405;-64
2022/07/15 08:53:33;;;;;;;;;1.00;1.00;;;;;;;;5092879;27;45491;-63
2022/07/15 08:55:59;;;;;;;;;2.00;1.50;;;;;;;;5092539;27;47442;-64
2022/07/15 08:58:24;;;;;;;;;3.25;2.25;;;;;;;;5092535;27;45533;-63
2022/07/15 09:00:50;;;;;;;;;1.00;1.00;;;;;;;;5093029;27;45410;-64
2022/07/15 09:03:15;;;;;;;;;2.00;2.00;;;;;;;;5092988;27;45318;-64
2022/07/15 09:05:41;;;;;;;;;3.00;3.00;;;;;;;;5074124;27;48424;-63
2022/07/15 09:08:08;;;;;;;;;3.00;2.00;;;;;;;;5092298;27;45385;-63
2022/07/15 09:10:52;;;;;;;;;3.25;2.00;;;;;;;;5093380;27;45475;-63
2022/07/15 09:13:24;;;;;;;;;3.50;2.00;;;;;;;;5092916;27;45846;-64
2022/07/15 09:15:49;;;;;;;;;3.00;2.00;;;;;;;;5074225;27;46553;-64
2022/07/15 09:18:16;;;;;;;;;2.00;2.00;;;;;;;;5092491;27;45581;-64
2022/07/15 09:20:43;;;;;;;;;2.75;2.00;;;;;;;;5074562;27;45512;-64
2022/07/15 09:23:09;;;;;;;;;1.00;1.00;;;;;;;;5093321;27;45562;-64
2022/07/15 09:25:35;;;;;;;;;1.00;1.00;;;;;;;;5074235;27;47489;-63
2022/07/15 09:28:01;;;;;;;;;1.50;1.00;;;;;;;;5092555;27;45547;-63
2022/07/15 09:36:18;;;;;;;;;1.00;1.00;;;;;;;;5092607;27;45822;-64
2022/07/15 09:38:44;;;;;;;;;1.25;1.25;;;;;;;;5072200;28;45460;-63
2022/07/15 09:41:29;;;;;;;;;0.50;0.50;;;;;;;;5072402;28;45471;-63
2022/07/15 09:43:57;;;;;;;;;2.75;2.50;;;;;;;;5061001;28;45429;-64
2022/07/15 09:46:24;;;;;;;;;1.50;1.50;;;;;;;;5071958;28;45843;-63
2022/07/15 09:48:50;;;;;;;;;1.00;1.00;;;;;;;;5071748;28;45418;-64
2022/07/15 09:51:16;;;;;;;;;2.00;1.00;;;;;;;;5071628;28;45354;-63
2022/07/15 09:53:41;;;;;;;;;2.75;2.75;;;;;;;;5053323;28;45434;-64
2022/07/15 09:56:11;;;;;;;;;0.25;0.25;;;;;;;;5071338;28;45903;-63
2022/07/15 09:58:37;;;;;;;;;1.00;1.00;;;;;;;;5073147;28;45831;-63
2022/07/15 10:01:03;;;;;;;;;1.00;1.00;;;;;;;;5075180;28;45500;-63
2022/07/15 10:03:28;;;;;;;;;0.00;0.00;;;;;;;;5075117;28;45555;-64
2022/07/15 10:05:56;;;;;;;;;1.00;1.00;;;;;;;;5056688;28;47507;-64
2022/07/15 10:08:23;;;;;;;;;0.25;0.25;;;;;;;;5056707;28;46637;-63
2022/07/15 10:10:51;;;;;;;;;0.25;0.00;;;;;;;;5056894;28;45469;-64
2022/07/15 10:13:31;;;;;;;;;0.25;0.25;;;;;;;;5075039;28;45441;-65
2022/07/15 10:15:56;;;;;;;;;1.00;0.00;;;;;;;;5074591;28;46795;-64
2022/07/15 10:18:39;;;;;;;;;0.25;0.25;;;;;;;;5056190;28;45635;-63
2022/07/15 10:21:29;;;;;;;;;0.75;0.75;;;;;;;;5074886;28;45420;-64
2022/07/15 10:24:24;;;;;;;;;1.25;1.25;;;;;;;;5074789;28;45425;-64
2022/07/15 10:27:04;;;;;;;;;1.00;1.00;;;;;;;;5011503;28;46728;-64
2022/07/15 10:29:29;;;;;;;;;0.75;0.75;;;;;;;;5011903;28;45755;-64
2022/07/15 10:31:56;;;;;;;;;0.75;0.75;;;;;;;;5011695;28;45466;-64
2022/07/15 10:34:22;;;;;;;;;0.00;0.00;;;;;;;;5011564;28;45439;-63
2022/07/15 10:36:49;;;;;;;;;0.25;0.00;;;;;;;;5017345;28;46394;-63
2022/07/15 10:39:15;;;;;;;;;0.00;0.00;;;;;;;;5031025;28;46217;-64
2022/07/15 10:41:57;;;;;;;;;0.75;0.75;;;;;;;;5031561;28;45526;-63
2022/07/15 10:44:23;;;;;;;;;0.25;0.25;;;;;;;;5024800;28;45618;-63
2022/07/15 10:47:08;;;;;;;;;0.00;0.00;;;;;;;;5031215;28;45578;-64
2022/07/15 10:49:33;;;;;;;;;0.00;0.00;;;;;;;;5031032;28;45503;-64
2022/07/15 10:52:10;;;;;;;;;0.75;0.75;;;;;;;;5031369;28;45398;-64
2022/07/15 10:54:35;;;;;;;;;0.00;0.00;;;;;;;;5014710;28;45518;-64
2022/07/15 10:57:01;;;;;;;;;0.25;0.25;;;;;;;;5031055;28;46644;-64
2022/07/15 10:59:26;;;;;;;;;1.25;1.25;;;;;;;;5030863;28;45512;-63
2022/07/15 11:01:57;;;;;;;;;0.75;0.75;;;;;;;;5031147;28;46049;-65
2022/07/15 11:04:28;;;;;;;;;0.00;0.00;;;;;;;;5071024;28;45389;-64
2022/07/15 11:07:03;;;;;;;;;0.00;0.00;;;;;;;;5073800;28;46668;-64
2022/07/15 11:09:47;;;;;;;;;0.25;0.25;;;;;;;;5073627;28;45520;-64
2022/07/15 11:12:12;;;;;;;;;0.75;0.75;;;;;;;;5074311;28;45493;-64
2022/07/15 11:14:45;;;;;;;;;0.25;0.25;;;;;;;;5074151;28;45522;-62
2022/07/15 11:17:11;;;;;;;;;0.50;0.00;;;;;;;;5073888;28;45741;-62
2022/07/15 11:19:37;;;;;;;;;0.00;0.00;;;;;;;;5073694;28;45476;-63
2022/07/15 11:22:02;;;;;;;;;0.00;0.00;;;;;;;;5055635;28;45626;-63
2022/07/15 11:24:28;;;;;;;;;1.00;1.00;;;;;;;;5073907;28;45647;-63
2022/07/15 11:26:53;;;;;;;;;1.00;1.00;;;;;;;;5073843;28;46317;-64
2022/07/15 11:29:19;;;;;;;;;0.50;0.00;;;;;;;;5074094;28;45492;-63
2022/07/15 11:31:44;;;;;;;;;1.00;0.25;;;;;;;;5074242;28;45358;-62
2022/07/15 11:34:10;;;;;;;;;1.00;1.00;;;;;;;;5074125;28;45573;-63
2022/07/15 11:36:35;;;;;;;;;0.00;0.00;;;;;;;;5073425;28;45800;-64
2022/07/15 11:39:00;;;;;;;;;0.00;0.00;;;;;;;;5073786;28;45658;-64
2022/07/15 11:44:29;;;;;;;;;0.75;0.75;;;;;;;;5085743;27;45492;-63
2022/07/15 11:46:56;;;;;;;;;1.00;1.00;;;;;;;;5094024;27;46581;-63
2022/07/15 11:49:28;;;;;;;;;0.00;0.00;;;;;;;;5094043;27;45993;-62
2022/07/15 11:51:54;;;;;;;;;1.00;1.00;;;;;;;;5075727;27;45464;-63
2022/07/15 11:54:19;;;;;;;;;1.00;1.00;;;;;;;;5094007;27;45371;-62
2022/07/15 11:56:54;;;;;;;;;0.00;0.00;;;;;;;;5094093;27;46043;-64
2022/07/15 11:59:20;;;;;;;;;1.00;1.00;;;;;;;;5093826;27;45483;-63
2022/07/15 12:01:45;;;;;;;;;0.00;0.00;;;;;;;;5075371;27;45355;-63
2022/07/15 12:04:10;;;;;;;;;0.50;0.50;;;;;;;;5093898;27;45502;-63
2022/07/15 12:06:36;;;;;;;;;0.25;0.25;;;;;;;;5093625;27;45580;-63
2022/07/15 12:09:03;;;;;;;;;2.00;0.50;;;;;;;;5093783;27;45757;-63
2022/07/15 12:11:32;;;;;;;;;0.50;0.50;;;;;;;;5093894;27;45452;-62
2022/07/15 12:14:01;;;;;;;;;1.00;1.00;;;;;;;;5093826;27;45764;-64
2022/07/15 12:16:34;;;;;;;;;1.00;1.00;;;;;;;;5093209;27;46638;-63
2022/07/15 12:19:04;;;;;;;;;0.75;0.75;;;;;;;;5093235;27;45405;-63
2022/07/15 12:21:30;;;;;;;;;0.00;0.00;;;;;;;;5092613;27;45415;-63
2022/07/15 12:24:07;;;;;;;;;2.00;0.00;;;;;;;;5093396;27;45413;-63
2022/07/15 12:26:33;;;;;;;;;1.00;0.00;;;;;;;;5093209;27;45649;-63
2022/07/15 12:29:02;;;;;;;;;1.00;1.00;;;;;;;;5093274;27;45420;-63
2022/07/15 12:31:29;;;;;;;;;0.50;0.50;;;;;;;;5093464;27;45531;-64
2022/07/15 12:33:54;;;;;;;;;0.00;0.00;;;;;;;;5074998;27;45618;-64
2022/07/15 12:36:20;;;;;;;;;0.00;0.00;;;;;;;;5093000;27;46481;-63
2022/07/15 12:39:01;;;;;;;;;1.00;1.00;;;;;;;;5093197;27;45437;-63
2022/07/15 12:41:26;;;;;;;;;1.00;1.00;;;;;;;;5093217;27;45414;-63
2022/07/15 12:43:53;;;;;;;;;1.00;1.00;;;;;;;;5093052;27;45370;-63
2022/07/15 12:46:19;;;;;;;;;0.00;0.00;;;;;;;;5093218;27;46685;-63
2022/07/15 12:48:48;;;;;;;;;0.00;0.00;;;;;;;;5093094;27;45429;-63
2022/07/15 12:51:17;;;;;;;;;1.00;1.00;;;;;;;;5093085;27;45460;-63
2022/07/15 12:53:42;;;;;;;;;0.50;0.50;;;;;;;;5074572;27;45430;-63
2022/07/15 12:56:08;;;;;;;;;0.00;0.00;;;;;;;;5074463;27;46850;-63
2022/07/15 12:58:37;;;;;;;;;1.00;1.00;;;;;;;;5092816;27;46018;-63
2022/07/15 13:01:04;;;;;;;;;0.00;0.00;;;;;;;;5074659;27;45483;-63
2022/07/15 13:03:29;;;;;;;;;2.00;0.00;;;;;;;;5074297;27;45586;-63
2022/07/15 13:05:54;;;;;;;;;0.00;0.00;;;;;;;;5092686;27;47447;-64
2022/07/15 13:08:22;;;;;;;;;0.75;0.00;;;;;;;;5074318;27;45496;-63
2022/07/15 13:10:50;;;;;;;;;0.50;0.50;;;;;;;;5092960;27;46069;-63
2022/07/15 13:13:16;;;;;;;;;1.00;1.00;;;;;;;;5092745;27;45501;-63
2022/07/15 13:15:42;;;;;;;;;0.00;0.00;;;;;;;;5074149;27;46406;-62
2022/07/15 13:18:07;;;;;;;;;0.00;0.00;;;;;;;;5092500;27;45402;-63
2022/07/15 13:20:32;;;;;;;;;0.25;0.25;;;;;;;;5092677;27;45315;-64
2022/07/15 13:22:58;;;;;;;;;0.00;0.00;;;;;;;;5092769;27;45455;-63
2022/07/15 13:25:24;;;;;;;;;0.00;0.00;;;;;;;;5092818;27;46234;-64
2022/07/15 13:27:49;;;;;;;;;0.00;0.00;;;;;;;;5092426;27;45350;-64
2022/07/15 13:30:15;;;;;;;;;0.00;0.00;;;;;;;;5092633;27;45385;-64
2022/07/15 13:32:40;;;;;;;;;0.50;0.50;;;;;;;;5074174;27;45636;-64
2022/07/15 13:35:06;;;;;;;;;0.00;0.00;;;;;;;;5077500;27;47883;-64
2022/07/15 13:37:32;;;;;;;;;0.00;0.00;;;;;;;;5095785;27;46012;-63
2022/07/15 13:39:57;;;;;;;;;0.00;0.00;;;;;;;;5077520;27;45420;-63
2022/07/15 13:42:24;;;;;;;;;0.00;0.00;;;;;;;;5096174;27;45407;-63
2022/07/15 13:44:49;;;;;;;;;1.50;0.50;;;;;;;;5095673;27;45472;-63
2022/07/15 13:47:14;;;;;;;;;0.25;0.25;;;;;;;;5096101;27;45467;-62
2022/07/15 13:52:23;;;;;;;;;1.00;1.00;;;;;;;;5080508;27;45412;-61
2022/07/15 13:54:49;;;;;;;;;0.50;0.50;;;;;;;;5095866;27;45853;-63
2022/07/15 13:57:14;;;;;;;;;0.75;0.75;;;;;;;;5077475;27;46541;-64
2022/07/15 13:59:39;;;;;;;;;0.75;0.75;;;;;;;;5095958;27;45499;-66
2022/07/15 14:02:04;;;;;;;;;0.00;0.00;;;;;;;;5095833;27;45520;-64
2022/07/15 14:04:33;;;;;;;;;1.00;1.00;;;;;;;;5095683;27;45775;-63
2022/07/15 14:06:58;;;;;;;;;0.75;0.50;;;;;;;;5095976;27;45469;-65
2022/07/15 14:09:23;;;;;;;;;0.75;0.75;;;;;;;;5095911;27;45432;-64
2022/07/15 14:11:48;;;;;;;;;0.00;0.00;;;;;;;;5096123;27;45501;-64
2022/07/15 14:14:14;;;;;;;;;0.00;0.00;;;;;;;;5077497;27;47621;-65
2022/07/15 14:16:39;;;;;;;;;1.00;1.00;;;;;;;;5095806;27;45421;-68
2022/07/15 14:19:05;;;;;;;;;0.00;0.00;;;;;;;;5077510;27;45552;-65
2022/07/15 14:21:30;;;;;;;;;0.00;0.00;;;;;;;;5096004;27;45332;-68
2022/07/15 14:23:56;;;;;;;;;0.25;0.25;;;;;;;;5095548;27;46608;-64
2022/07/15 14:26:21;;;;;;;;;1.00;0.25;;;;;;;;5077343;27;45696;-64
2022/07/15 14:28:46;;;;;;;;;0.00;0.00;;;;;;;;5096044;27;45369;-64
2022/07/15 14:31:15;;;;;;;;;0.00;0.00;;;;;;;;5095929;27;45610;-64
2022/07/15 14:33:41;;;;;;;;;0.00;0.00;;;;;;;;5095369;27;45477;-64
2022/07/15 14:36:09;;;;;;;;;0.25;0.25;;;;;;;;5095323;27;45461;-63
2022/07/15 14:38:35;;;;;;;;;0.00;0.00;;;;;;;;5095672;27;45428;-63
2022/07/15 14:41:01;;;;;;;;;0.00;0.00;;;;;;;;5095477;27;45485;-63
2022/07/15 14:43:26;;;;;;;;;0.00;0.00;;;;;;;;5094811;27;46365;-64
2022/07/15 14:45:51;;;;;;;;;0.00;0.00;;;;;;;;5095709;27;45677;-64
2022/07/15 14:48:16;;;;;;;;;1.00;0.75;;;;;;;;5095464;27;45436;-63
2022/07/15 14:50:41;;;;;;;;;0.00;0.00;;;;;;;;5077037;27;45746;-63
2022/07/15 14:53:07;;;;;;;;;1.00;1.00;;;;;;;;5094785;27;45933;-63
2022/07/15 14:55:32;;;;;;;;;0.25;0.25;;;;;;;;5094874;27;45511;-64